Atwater, Minnesota
Current Conditions -  °F | °C
As of 3:13 AM on Saturday 01 Nov 2014 (Local Time) from KLJF Reporting Station
Clear Clear  
Wind Chill: 28°   Ceiling: Unl
Heat Index: 28°   Visibility: NA
Dew Point: 19°   Wind: 3mph
Humidity: 69%   Direction: 160°SSE
Pressure: 30.43"   Gusts: NA
Location:  45.14°N, 94.78°W
Report Text: KLJF 010813Z AUTO 16003KT CLR M02/M07 A3043 RMK AO2 PWINO
Loading
Personal Weather Stations






























Interactive Weather Map
Tropical Storm Tracking
New forecast layout! Learn more

10-Day Weather Forecast

Advertisements
Track Severe Weather on mobile